PWSweather.com
Personal Weather Stations
Station Observations
MTCRAWFORD
Saddlebrook Subdivision, Mount Crawford, VA 22841

Saddlebrook SubdivisionMount Crawford, VA 22841

Lat: 38.3625069, Lon: -78.940918

Elevation: 1210

Station Type: OS-WMR968

Latest ConditionsUpdated 10:15:09 PM EDT Monday, Mar 27, 2017
Currently Today's Max Today's Min Today's Average
Temperature 56.7°F13.7°C 77.4°F25.2°C 49.8°F9.9°C 61.2°F16.2°C
Dew Point 40.2°F4.6°C 55.1°F12.8°C 35.9°F2.2°C 41.3°F5.2°C
Winds Calm Calm 5.0 mph WSW8.0 kmh WSW - 0.1 mph 0.2 kmh
Wind Gusts -- 13.1 mph21.1 kmh - -
Humidity 54% 80% 25% 53%
Pressure 29.94 in1013.9 mb 30.12 in1020.0 mb 29.91 in1012.9 mb -
Hour Temp Dew Point Humidity Winds Wind Gusts Pressure Precip Precip Rate Daily Precip Total
10:15 PM 56.7°F13.7°C 40.2°F4.6°C 54% Calm Calm -- 29.94 in1013.9 mb 0.00 in0.0 mm 0.00 in0.0 mm 0.14 in3.6 mm
10:10 PM 56.8°F13.8°C 39.9°F4.4°C 53% Calm Calm -- 29.94 in1013.9 mb 0.00 in0.0 mm 0.00 in0.0 mm 0.14 in3.6 mm
10:05 PM 57.0°F13.9°C 40.1°F4.5°C 53% Calm Calm -- 29.94 in1013.9 mb 0.00 in0.0 mm 0.00 in0.0 mm 0.14 in3.6 mm
10:00 PM 57.2°F14.0°C 39.8°F4.3°C 52% Calm Calm -- 29.94 in1013.9 mb 0.00 in0.0 mm 0.00 in0.0 mm 0.14 in3.6 mm
09:55 PM 57.4°F14.1°C 39.9°F4.4°C 52% Calm Calm -- 29.94 in1013.9 mb 0.00 in0.0 mm 0.00 in0.0 mm 0.14 in3.6 mm
09:50 PM 57.6°F14.2°C 39.6°F4.2°C 51% Calm Calm -- 29.94 in1013.9 mb 0.00 in0.0 mm 0.00 in0.0 mm 0.14 in3.6 mm
09:45 PM 57.9°F14.4°C 39.9°F4.4°C 51% Calm Calm -- 29.94 in1013.9 mb 0.00 in0.0 mm 0.00 in0.0 mm 0.14 in3.6 mm
09:40 PM 58.1°F14.5°C 40.1°F4.5°C 51% Calm Calm -- 29.94 in1013.9 mb 0.00 in0.0 mm 0.00 in0.0 mm 0.14 in3.6 mm
09:35 PM 58.3°F14.6°C 40.3°F4.6°C 51% Calm Calm -- 29.94 in1013.9 mb 0.00 in0.0 mm 0.00 in0.0 mm 0.14 in3.6 mm
09:30 PM 58.1°F14.5°C 39.6°F4.2°C 50% Calm Calm -- 29.94 in1013.9 mb 0.00 in0.0 mm 0.00 in0.0 mm 0.14 in3.6 mm
09:25 PM 58.5°F14.7°C 39.9°F4.4°C 50% Calm Calm -- 29.94 in1013.9 mb 0.00 in0.0 mm 0.00 in0.0 mm 0.14 in3.6 mm
09:20 PM 58.5°F14.7°C 39.4°F4.1°C 49% Calm Calm -- 29.94 in1013.9 mb 0.00 in0.0 mm 0.00 in0.0 mm 0.14 in3.6 mm
09:15 PM 58.6°F14.8°C 39.6°F4.2°C 49% Calm Calm -- 29.94 in1013.9 mb 0.00 in0.0 mm 0.00 in0.0 mm 0.14 in3.6 mm
09:10 PM 58.8°F14.9°C 39.2°F4.0°C 48% Calm Calm -- 29.94 in1013.9 mb 0.00 in0.0 mm 0.00 in0.0 mm 0.14 in3.6 mm
09:05 PM 59.2°F15.1°C 39.0°F3.9°C 47% Calm Calm -- 29.94 in1013.9 mb 0.00 in0.0 mm 0.00 in0.0 mm 0.14 in3.6 mm
09:00 PM 59.4°F15.2°C 39.2°F4.0°C 47% Calm Calm -- 29.94 in1013.9 mb 0.00 in0.0 mm 0.00 in0.0 mm 0.14 in3.6 mm
08:55 PM 59.5°F15.3°C 39.3°F4.1°C 47% Calm Calm -- 29.94 in1013.9 mb 0.00 in0.0 mm 0.00 in0.0 mm 0.14 in3.6 mm
08:50 PM 59.9°F15.5°C 39.1°F3.9°C 46% Calm Calm -- 29.94 in1013.9 mb 0.00 in0.0 mm 0.00 in0.0 mm 0.14 in3.6 mm
08:45 PM 60.3°F15.7°C 39.4°F4.1°C 46% Calm Calm -- 29.94 in1013.9 mb 0.00 in0.0 mm 0.00 in0.0 mm 0.14 in3.6 mm
08:40 PM 60.4°F15.8°C 39.6°F4.2°C 46% Calm Calm -- 29.94 in1013.9 mb 0.00 in0.0 mm 0.00 in0.0 mm 0.14 in3.6 mm
08:35 PM 60.8°F16.0°C 39.4°F4.1°C 45% Calm Calm -- 29.94 in1013.9 mb 0.00 in0.0 mm 0.00 in0.0 mm 0.14 in3.6 mm
08:30 PM 61.2°F16.2°C 39.7°F4.3°C 45% Calm Calm -- 29.94 in1013.9 mb 0.00 in0.0 mm 0.00 in0.0 mm 0.14 in3.6 mm
08:25 PM 61.3°F16.3°C 39.8°F4.3°C 45% Calm Calm -- 29.94 in1013.9 mb 0.00 in0.0 mm 0.00 in0.0 mm 0.14 in3.6 mm
08:20 PM 61.5°F16.4°C 40.0°F4.4°C 45% Calm Calm -- 29.94 in1013.9 mb 0.00 in0.0 mm 0.00 in0.0 mm 0.14 in3.6 mm
08:15 PM 61.9°F16.6°C 40.3°F4.6°C 45% Calm Calm -- 29.94 in1013.9 mb 0.00 in0.0 mm 0.00 in0.0 mm 0.14 in3.6 mm
08:10 PM 62.1°F16.7°C 40.5°F4.7°C 45% Calm Calm -- 29.91 in1012.9 mb 0.00 in0.0 mm 0.00 in0.0 mm 0.14 in3.6 mm
08:05 PM 62.2°F16.8°C 40.7°F4.8°C 45% Calm Calm -- 29.91 in1012.9 mb 0.00 in0.0 mm 0.00 in0.0 mm 0.14 in3.6 mm
08:00 PM 62.6°F17.0°C 40.4°F4.7°C 44% Calm Calm -- 29.91 in1012.9 mb 0.00 in0.0 mm 0.00 in0.0 mm 0.14 in3.6 mm
07:55 PM 62.8°F17.1°C 40.6°F4.8°C 44% Calm Calm -- 29.91 in1012.9 mb 0.01 in0.3 mm 0.00 in0.0 mm 0.14 in3.6 mm
07:50 PM 63.0°F17.2°C 40.7°F4.8°C 44% Calm Calm -- 29.91 in1012.9 mb 0.01 in0.3 mm 0.00 in0.0 mm 0.14 in3.6 mm
07:45 PM 63.0°F17.2°C 40.7°F4.8°C 44% Calm Calm -- 29.91 in1012.9 mb 0.01 in0.3 mm 0.00 in0.0 mm 0.14 in3.6 mm
07:40 PM 63.0°F17.2°C 40.7°F4.8°C 44% Calm Calm -- 29.91 in1012.9 mb 0.01 in0.3 mm 0.00 in0.0 mm 0.14 in3.6 mm
07:35 PM 63.0°F17.2°C 40.7°F4.8°C 44% Calm Calm -- 29.91 in1012.9 mb 0.01 in0.3 mm 0.00 in0.0 mm 0.14 in3.6 mm
07:30 PM 63.0°F17.2°C 40.1°F4.5°C 43% Calm Calm -- 29.91 in1012.9 mb 0.01 in0.3 mm 0.00 in0.0 mm 0.14 in3.6 mm
07:25 PM 63.1°F17.3°C 39.7°F4.3°C 42% Calm Calm -- 29.91 in1012.9 mb 0.01 in0.3 mm 0.00 in0.0 mm 0.14 in3.6 mm
07:20 PM 63.5°F17.5°C 39.4°F4.1°C 41% Calm Calm -- 29.91 in1012.9 mb 0.01 in0.3 mm 0.00 in0.0 mm 0.14 in3.6 mm
07:15 PM 64.0°F17.8°C 39.9°F4.4°C 41% Calm Calm -- 29.91 in1012.9 mb 0.01 in0.3 mm 0.00 in0.0 mm 0.14 in3.6 mm
07:10 PM 64.8°F18.2°C 37.9°F3.3°C 37% Calm Calm -- 29.91 in1012.9 mb 0.01 in0.3 mm 0.00 in0.0 mm 0.14 in3.6 mm
07:05 PM 65.5°F18.6°C 37.1°F2.8°C 35% Calm Calm -- 29.91 in1012.9 mb 0.01 in0.3 mm 0.00 in0.0 mm 0.14 in3.6 mm
07:00 PM 66.2°F19.0°C 37.0°F2.8°C 34% Calm Calm -- 29.91 in1012.9 mb 0.01 in0.3 mm 0.01 in0.3 mm 0.14 in3.6 mm
06:55 PM 66.9°F19.4°C 37.7°F3.2°C 34% Calm Calm -- 29.91 in1012.9 mb 0.00 in0.0 mm 0.00 in0.0 mm 0.13 in3.3 mm
06:50 PM 67.8°F19.9°C 37.7°F3.2°C 33% Calm Calm -- 29.91 in1012.9 mb 0.00 in0.0 mm 0.00 in0.0 mm 0.13 in3.3 mm
06:45 PM 68.5°F20.3°C 37.5°F3.1°C 32% Calm Calm 13.1 mph21.1 kmh 29.91 in1012.9 mb 0.00 in0.0 mm 0.00 in0.0 mm 0.13 in3.3 mm
06:40 PM 68.7°F20.4°C 39.3°F4.1°C 34% Calm Calm -- 29.91 in1012.9 mb 0.00 in0.0 mm 0.00 in0.0 mm 0.13 in3.3 mm
06:35 PM 68.9°F20.5°C 38.6°F3.7°C 33% Calm Calm -- 29.91 in1012.9 mb 0.00 in0.0 mm 0.00 in0.0 mm 0.13 in3.3 mm
06:30 PM 69.6°F20.9°C 39.3°F4.1°C 33% Calm Calm -- 29.91 in1012.9 mb 0.00 in0.0 mm 0.00 in0.0 mm 0.13 in3.3 mm
06:25 PM 70.3°F21.3°C 39.1°F3.9°C 32% Calm Calm -- 29.91 in1012.9 mb 0.00 in0.0 mm 0.00 in0.0 mm 0.13 in3.3 mm
06:20 PM 71.1°F21.7°C 39.7°F4.3°C 32% Calm Calm -- 29.91 in1012.9 mb 0.00 in0.0 mm 0.00 in0.0 mm 0.13 in3.3 mm
06:15 PM 71.4°F21.9°C 37.5°F3.1°C 29% Calm Calm -- 29.91 in1012.9 mb 0.00 in0.0 mm 0.00 in0.0 mm 0.13 in3.3 mm
06:10 PM 71.6°F22.0°C 37.7°F3.2°C 29% Calm Calm -- 29.91 in1012.9 mb 0.00 in0.0 mm 0.00 in0.0 mm 0.13 in3.3 mm
06:05 PM 72.0°F22.2°C 38.0°F3.3°C 29% Calm Calm -- 29.91 in1012.9 mb 0.00 in0.0 mm 0.00 in0.0 mm 0.13 in3.3 mm
06:00 PM 72.3°F22.4°C 38.3°F3.5°C 29% Calm Calm -- 29.91 in1012.9 mb 0.00 in0.0 mm 0.00 in0.0 mm 0.13 in3.3 mm
05:55 PM 72.7°F22.6°C 35.9°F2.2°C 26% Calm Calm -- 29.91 in1012.9 mb 0.00 in0.0 mm 0.00 in0.0 mm 0.13 in3.3 mm
05:50 PM 73.4°F23.0°C 36.5°F2.5°C 26% Calm Calm -- 29.91 in1012.9 mb 0.00 in0.0 mm 0.00 in0.0 mm 0.13 in3.3 mm
05:45 PM 74.1°F23.4°C 37.1°F2.8°C 26% Calm Calm -- 29.91 in1012.9 mb 0.00 in0.0 mm 0.00 in0.0 mm 0.13 in3.3 mm
05:40 PM 74.3°F23.5°C 37.2°F2.9°C 26% Calm Calm -- 29.91 in1012.9 mb 0.00 in0.0 mm 0.00 in0.0 mm 0.13 in3.3 mm
05:35 PM 74.5°F23.6°C 37.4°F3.0°C 26% Calm Calm -- 29.91 in1012.9 mb 0.00 in0.0 mm 0.00 in0.0 mm 0.13 in3.3 mm
05:30 PM 74.7°F23.7°C 37.5°F3.1°C 26% Calm Calm -- 29.91 in1012.9 mb 0.00 in0.0 mm 0.00 in0.0 mm 0.13 in3.3 mm
05:25 PM 74.8°F23.8°C 37.7°F3.2°C 26% Calm Calm -- 29.91 in1012.9 mb 0.00 in0.0 mm 0.00 in0.0 mm 0.13 in3.3 mm
05:20 PM 75.0°F23.9°C 37.8°F3.2°C 26% Calm Calm -- 29.91 in1012.9 mb 0.00 in0.0 mm 0.00 in0.0 mm 0.13 in3.3 mm
05:15 PM 75.2°F24.0°C 37.0°F2.8°C 25% Calm Calm -- 29.91 in1012.9 mb 0.00 in0.0 mm 0.00 in0.0 mm 0.13 in3.3 mm
05:10 PM 75.4°F24.1°C 37.2°F2.9°C 25% Calm Calm -- 29.91 in1012.9 mb 0.00 in0.0 mm 0.00 in0.0 mm 0.13 in3.3 mm
05:05 PM 75.6°F24.2°C 37.3°F2.9°C 25% Calm Calm -- 29.91 in1012.9 mb 0.00 in0.0 mm 0.00 in0.0 mm 0.13 in3.3 mm
05:00 PM 75.9°F24.4°C 37.6°F3.1°C 25% Calm Calm -- 29.91 in1012.9 mb 0.00 in0.0 mm 0.00 in0.0 mm 0.13 in3.3 mm
04:55 PM 76.1°F24.5°C 37.8°F3.2°C 25% Calm Calm -- 29.91 in1012.9 mb 0.00 in0.0 mm 0.00 in0.0 mm 0.13 in3.3 mm
04:50 PM 76.5°F24.7°C 38.1°F3.4°C 25% Calm Calm -- 29.91 in1012.9 mb 0.00 in0.0 mm 0.00 in0.0 mm 0.13 in3.3 mm
04:45 PM 76.8°F24.9°C 38.4°F3.6°C 25% Calm Calm -- 29.91 in1012.9 mb 0.00 in0.0 mm 0.00 in0.0 mm 0.13 in3.3 mm
04:40 PM 77.0°F25.0°C 38.5°F3.6°C 25% Calm Calm -- 29.91 in1012.9 mb 0.00 in0.0 mm 0.00 in0.0 mm 0.13 in3.3 mm
04:35 PM 77.2°F25.1°C 38.7°F3.7°C 25% Calm Calm -- 29.91 in1012.9 mb 0.00 in0.0 mm 0.00 in0.0 mm 0.13 in3.3 mm
04:30 PM 77.2°F25.1°C 38.7°F3.7°C 25% Calm Calm -- 29.91 in1012.9 mb 0.00 in0.0 mm 0.00 in0.0 mm 0.13 in3.3 mm
04:25 PM 77.4°F25.2°C 38.8°F3.8°C 25% Calm Calm -- 29.91 in1012.9 mb 0.00 in0.0 mm 0.00 in0.0 mm 0.13 in3.3 mm
04:20 PM 77.4°F25.2°C 38.8°F3.8°C 25% Calm Calm -- 29.91 in1012.9 mb 0.00 in0.0 mm 0.00 in0.0 mm 0.13 in3.3 mm
04:15 PM 77.0°F25.0°C 38.5°F3.6°C 25% Calm Calm -- 29.91 in1012.9 mb 0.00 in0.0 mm 0.00 in0.0 mm 0.13 in3.3 mm
04:10 PM 76.6°F24.8°C 38.2°F3.4°C 25% Calm Calm -- 29.91 in1012.9 mb 0.00 in0.0 mm 0.00 in0.0 mm 0.13 in3.3 mm
04:05 PM 76.6°F24.8°C 38.2°F3.4°C 25% Calm Calm -- 29.91 in1012.9 mb 0.00 in0.0 mm 0.00 in0.0 mm 0.13 in3.3 mm
04:00 PM 76.6°F24.8°C 38.2°F3.4°C 25% Calm Calm -- 29.91 in1012.9 mb 0.00 in0.0 mm 0.00 in0.0 mm 0.13 in3.3 mm
03:54 PM 76.5°F24.7°C 38.1°F3.4°C 25% Calm Calm -- 29.94 in1013.9 mb 0.00 in0.0 mm 0.00 in0.0 mm 0.13 in3.3 mm
03:50 PM 76.5°F24.7°C 38.1°F3.4°C 25% Calm Calm -- 29.94 in1013.9 mb 0.00 in0.0 mm 0.00 in0.0 mm 0.13 in3.3 mm
03:45 PM 76.5°F24.7°C 38.1°F3.4°C 25% Calm Calm -- 29.94 in1013.9 mb 0.00 in0.0 mm 0.00 in0.0 mm 0.13 in3.3 mm
03:40 PM 76.6°F24.8°C 38.2°F3.4°C 25% Calm Calm 5.6 mph9.0 kmh 29.94 in1013.9 mb 0.00 in0.0 mm 0.00 in0.0 mm 0.13 in3.3 mm
03:35 PM 76.8°F24.9°C 38.4°F3.6°C 25% Calm Calm -- 29.94 in1013.9 mb 0.00 in0.0 mm 0.00 in0.0 mm 0.13 in3.3 mm
03:30 PM 76.3°F24.6°C 37.9°F3.3°C 25% Calm Calm -- 29.94 in1013.9 mb 0.00 in0.0 mm 0.00 in0.0 mm 0.13 in3.3 mm
03:25 PM 75.7°F24.3°C 37.5°F3.1°C 25% Calm Calm -- 29.94 in1013.9 mb 0.00 in0.0 mm 0.00 in0.0 mm 0.13 in3.3 mm
03:20 PM 76.1°F24.5°C 37.8°F3.2°C 25% Calm Calm -- 29.94 in1013.9 mb 0.00 in0.0 mm 0.00 in0.0 mm 0.13 in3.3 mm
03:15 PM 76.6°F24.8°C 38.2°F3.4°C 25% Calm Calm -- 29.94 in1013.9 mb 0.00 in0.0 mm 0.00 in0.0 mm 0.13 in3.3 mm
03:10 PM 75.9°F24.4°C 40.5°F4.7°C 28% Calm Calm -- 29.94 in1013.9 mb 0.00 in0.0 mm 0.00 in0.0 mm 0.13 in3.3 mm
03:05 PM 74.7°F23.7°C 37.5°F3.1°C 26% Calm Calm -- 29.94 in1013.9 mb 0.00 in0.0 mm 0.00 in0.0 mm 0.13 in3.3 mm
03:00 PM 73.9°F23.3°C 38.8°F3.8°C 28% Calm Calm -- 29.94 in1013.9 mb 0.00 in0.0 mm 0.00 in0.0 mm 0.13 in3.3 mm
02:55 PM 73.4°F23.0°C 36.5°F2.5°C 26% Calm Calm -- 29.97 in1014.9 mb 0.00 in0.0 mm 0.00 in0.0 mm 0.13 in3.3 mm
02:50 PM 73.4°F23.0°C 36.5°F2.5°C 26% Calm Calm -- 29.97 in1014.9 mb 0.00 in0.0 mm 0.00 in0.0 mm 0.13 in3.3 mm
02:45 PM 73.9°F23.3°C 36.9°F2.7°C 26% Calm Calm -- 29.97 in1014.9 mb 0.00 in0.0 mm 0.00 in0.0 mm 0.13 in3.3 mm
02:40 PM 74.5°F23.6°C 39.3°F4.1°C 28% Calm Calm -- 29.97 in1014.9 mb 0.00 in0.0 mm 0.00 in0.0 mm 0.13 in3.3 mm
02:35 PM 74.7°F23.7°C 39.4°F4.1°C 28% Calm Calm -- 29.97 in1014.9 mb 0.00 in0.0 mm 0.00 in0.0 mm 0.13 in3.3 mm
02:30 PM 74.1°F23.4°C 39.0°F3.9°C 28% Calm Calm -- 29.97 in1014.9 mb 0.00 in0.0 mm 0.00 in0.0 mm 0.13 in3.3 mm
02:25 PM 73.6°F23.1°C 38.5°F3.6°C 28% Calm Calm -- 29.97 in1014.9 mb 0.00 in0.0 mm 0.00 in0.0 mm 0.13 in3.3 mm
02:20 PM 72.7°F22.6°C 38.6°F3.7°C 29% Calm Calm -- 29.97 in1014.9 mb 0.00 in0.0 mm 0.00 in0.0 mm 0.13 in3.3 mm
02:15 PM 72.3°F22.4°C 38.3°F3.5°C 29% Calm Calm -- 29.97 in1014.9 mb 0.00 in0.0 mm 0.00 in0.0 mm 0.13 in3.3 mm
02:10 PM 72.9°F22.7°C 38.8°F3.8°C 29% Calm Calm -- 29.97 in1014.9 mb 0.00 in0.0 mm 0.00 in0.0 mm 0.13 in3.3 mm
02:05 PM 73.4°F23.0°C 38.4°F3.6°C 28% Calm Calm -- 29.97 in1014.9 mb 0.00 in0.0 mm 0.00 in0.0 mm 0.13 in3.3 mm
02:00 PM 73.4°F23.0°C 38.4°F3.6°C 28% Calm Calm -- 29.97 in1014.9 mb 0.00 in0.0 mm 0.00 in0.0 mm 0.13 in3.3 mm
01:55 PM 73.0°F22.8°C 38.9°F3.8°C 29% Calm Calm -- 29.97 in1014.9 mb 0.00 in0.0 mm 0.00 in0.0 mm 0.13 in3.3 mm
01:50 PM 72.7°F22.6°C 38.6°F3.7°C 29% Calm Calm -- 29.97 in1014.9 mb 0.00 in0.0 mm 0.00 in0.0 mm 0.13 in3.3 mm
01:45 PM 72.3°F22.4°C 38.3°F3.5°C 29% Calm Calm -- 29.97 in1014.9 mb 0.00 in0.0 mm 0.00 in0.0 mm 0.13 in3.3 mm
01:40 PM 72.3°F22.4°C 40.0°F4.4°C 31% Calm Calm -- 30.00 in1015.9 mb 0.00 in0.0 mm 0.00 in0.0 mm 0.13 in3.3 mm
01:35 PM 72.7°F22.6°C 38.6°F3.7°C 29% Calm Calm -- 30.00 in1015.9 mb 0.00 in0.0 mm 0.00 in0.0 mm 0.13 in3.3 mm
01:30 PM 73.0°F22.8°C 38.9°F3.8°C 29% Calm Calm -- 30.00 in1015.9 mb 0.00 in0.0 mm 0.00 in0.0 mm 0.13 in3.3 mm
01:25 PM 73.2°F22.9°C 40.8°F4.9°C 31% Calm Calm -- 30.00 in1015.9 mb 0.00 in0.0 mm 0.00 in0.0 mm 0.13 in3.3 mm
01:20 PM 72.9°F22.7°C 40.5°F4.7°C 31% Calm Calm -- 30.00 in1015.9 mb 0.00 in0.0 mm 0.00 in0.0 mm 0.13 in3.3 mm
01:15 PM 72.5°F22.5°C 40.2°F4.6°C 31% Calm Calm -- 30.00 in1015.9 mb 0.00 in0.0 mm 0.00 in0.0 mm 0.13 in3.3 mm
01:10 PM 72.5°F22.5°C 41.0°F5.0°C 32% Calm Calm -- 30.00 in1015.9 mb 0.00 in0.0 mm 0.00 in0.0 mm 0.13 in3.3 mm
01:05 PM 71.8°F22.1°C 40.4°F4.7°C 32% Calm Calm -- 30.00 in1015.9 mb 0.00 in0.0 mm 0.00 in0.0 mm 0.13 in3.3 mm
01:00 PM 71.6°F22.0°C 39.4°F4.1°C 31% Calm Calm -- 30.00 in1015.9 mb 0.00 in0.0 mm 0.00 in0.0 mm 0.13 in3.3 mm
12:55 PM 72.0°F22.2°C 40.5°F4.7°C 32% Calm Calm -- 30.00 in1015.9 mb 0.00 in0.0 mm 0.00 in0.0 mm 0.13 in3.3 mm
12:50 PM 71.8°F22.1°C 39.6°F4.2°C 31% Calm Calm -- 30.00 in1015.9 mb 0.00 in0.0 mm 0.00 in0.0 mm 0.13 in3.3 mm
12:45 PM 71.8°F22.1°C 40.4°F4.7°C 32% Calm Calm -- 30.00 in1015.9 mb 0.00 in0.0 mm 0.00 in0.0 mm 0.13 in3.3 mm
12:40 PM 72.0°F22.2°C 40.5°F4.7°C 32% Calm Calm -- 30.00 in1015.9 mb 0.00 in0.0 mm 0.00 in0.0 mm 0.13 in3.3 mm
12:35 PM 71.8°F22.1°C 40.4°F4.7°C 32% Calm Calm -- 30.00 in1015.9 mb 0.00 in0.0 mm 0.00 in0.0 mm 0.13 in3.3 mm
12:30 PM 71.8°F22.1°C 40.4°F4.7°C 32% Calm Calm -- 30.00 in1015.9 mb 0.00 in0.0 mm 0.00 in0.0 mm 0.13 in3.3 mm
12:24 PM 71.8°F22.1°C 40.4°F4.7°C 32% Calm Calm -- 30.03 in1016.9 mb 0.00 in0.0 mm 0.00 in0.0 mm 0.13 in3.3 mm
12:20 PM 71.1°F21.7°C 41.3°F5.2°C 34% Calm Calm -- 30.03 in1016.9 mb 0.00 in0.0 mm 0.00 in0.0 mm 0.13 in3.3 mm
12:15 PM 70.3°F21.3°C 39.9°F4.4°C 33% Calm Calm -- 30.03 in1016.9 mb 0.00 in0.0 mm 0.00 in0.0 mm 0.13 in3.3 mm
12:10 PM 70.2°F21.2°C 39.7°F4.3°C 33% Calm Calm -- 30.03 in1016.9 mb 0.00 in0.0 mm 0.00 in0.0 mm 0.13 in3.3 mm
12:05 PM 70.2°F21.2°C 39.7°F4.3°C 33% Calm Calm -- 30.03 in1016.9 mb 0.00 in0.0 mm 0.00 in0.0 mm 0.13 in3.3 mm
12:00 PM 70.2°F21.2°C 39.7°F4.3°C 33% Calm Calm -- 30.03 in1016.9 mb 0.00 in0.0 mm 0.00 in0.0 mm 0.13 in3.3 mm
11:55 AM 70.0°F21.1°C 41.1°F5.1°C 35% Calm Calm -- 30.03 in1016.9 mb 0.00 in0.0 mm 0.00 in0.0 mm 0.13 in3.3 mm
11:50 AM 70.2°F21.2°C 40.5°F4.7°C 34% Calm Calm -- 30.03 in1016.9 mb 0.00 in0.0 mm 0.00 in0.0 mm 0.13 in3.3 mm
11:45 AM 70.0°F21.1°C 41.8°F5.4°C 36% Calm Calm -- 30.03 in1016.9 mb 0.00 in0.0 mm 0.00 in0.0 mm 0.13 in3.3 mm
11:40 AM 69.6°F20.9°C 42.9°F6.1°C 38% Calm Calm -- 30.03 in1016.9 mb 0.00 in0.0 mm 0.00 in0.0 mm 0.13 in3.3 mm
11:35 AM 69.3°F20.7°C 41.9°F5.5°C 37% Calm Calm -- 30.03 in1016.9 mb 0.00 in0.0 mm 0.00 in0.0 mm 0.13 in3.3 mm
11:30 AM 68.9°F20.5°C 40.9°F4.9°C 36% Calm Calm -- 30.03 in1016.9 mb 0.00 in0.0 mm 0.00 in0.0 mm 0.13 in3.3 mm
11:25 AM 68.5°F20.3°C 41.3°F5.2°C 37% Calm Calm -- 30.03 in1016.9 mb 0.00 in0.0 mm 0.00 in0.0 mm 0.13 in3.3 mm
11:20 AM 68.2°F20.1°C 43.0°F6.1°C 40% Calm Calm -- 30.03 in1016.9 mb 0.00 in0.0 mm 0.00 in0.0 mm 0.13 in3.3 mm
11:15 AM 67.8°F19.9°C 43.3°F6.3°C 41% Calm Calm -- 30.03 in1016.9 mb 0.00 in0.0 mm 0.00 in0.0 mm 0.13 in3.3 mm
11:10 AM 67.8°F19.9°C 43.3°F6.3°C 41% Calm Calm -- 30.03 in1016.9 mb 0.00 in0.0 mm 0.00 in0.0 mm 0.13 in3.3 mm
11:05 AM 67.6°F19.8°C 43.8°F6.6°C 42% Calm Calm -- 30.03 in1016.9 mb 0.00 in0.0 mm 0.00 in0.0 mm 0.13 in3.3 mm
11:00 AM 67.3°F19.6°C 43.4°F6.3°C 42% Calm Calm 12.0 mph19.3 kmh 30.03 in1016.9 mb 0.00 in0.0 mm 0.00 in0.0 mm 0.13 in3.3 mm
10:55 AM 66.9°F19.4°C 43.7°F6.5°C 43% Calm Calm -- 30.03 in1016.9 mb 0.00 in0.0 mm 0.00 in0.0 mm 0.13 in3.3 mm
10:50 AM 66.6°F19.2°C 43.4°F6.3°C 43% Calm Calm -- 30.03 in1016.9 mb 0.00 in0.0 mm 0.00 in0.0 mm 0.13 in3.3 mm
10:45 AM 66.2°F19.0°C 43.7°F6.5°C 44% Calm Calm -- 30.03 in1016.9 mb 0.00 in0.0 mm 0.00 in0.0 mm 0.13 in3.3 mm
10:40 AM 66.0°F18.9°C 43.5°F6.4°C 44% Calm Calm -- 30.03 in1016.9 mb 0.00 in0.0 mm 0.00 in0.0 mm 0.13 in3.3 mm
10:35 AM 65.8°F18.8°C 43.9°F6.6°C 45% 3.4 mph WSW5.5 kmh WSW 3.4 mph5.5 kmh 30.03 in1016.9 mb 0.00 in0.0 mm 0.00 in0.0 mm 0.13 in3.3 mm
10:30 AM 65.7°F18.7°C 44.3°F6.8°C 46% Calm Calm -- 30.03 in1016.9 mb 0.00 in0.0 mm 0.00 in0.0 mm 0.13 in3.3 mm
10:25 AM 65.7°F18.7°C 46.0°F7.8°C 49% Calm Calm -- 30.03 in1016.9 mb 0.00 in0.0 mm 0.00 in0.0 mm 0.13 in3.3 mm
10:20 AM 64.9°F18.3°C 47.4°F8.6°C 53% Calm Calm 4.5 mph7.2 kmh 30.03 in1016.9 mb 0.00 in0.0 mm 0.00 in0.0 mm 0.13 in3.3 mm
10:15 AM 64.2°F17.9°C 47.7°F8.7°C 55% Calm Calm 3.4 mph5.5 kmh 30.03 in1016.9 mb 0.00 in0.0 mm 0.00 in0.0 mm 0.13 in3.3 mm
10:10 AM 63.9°F17.7°C 50.2°F10.1°C 61% Calm Calm -- 30.03 in1016.9 mb 0.00 in0.0 mm 0.00 in0.0 mm 0.13 in3.3 mm
10:05 AM 63.3°F17.4°C 52.2°F11.2°C 67% Calm Calm -- 30.03 in1016.9 mb 0.00 in0.0 mm 0.00 in0.0 mm 0.13 in3.3 mm
10:00 AM 62.2°F16.8°C 52.0°F11.1°C 69% Calm Calm -- 30.03 in1016.9 mb 0.00 in0.0 mm 0.00 in0.0 mm 0.13 in3.3 mm
09:55 AM 61.9°F16.6°C 55.0°F12.8°C 78% Calm Calm -- 30.03 in1016.9 mb 0.00 in0.0 mm 0.00 in0.0 mm 0.13 in3.3 mm
09:50 AM 61.3°F16.3°C 55.1°F12.8°C 80% Calm Calm -- 30.03 in1016.9 mb 0.00 in0.0 mm 0.00 in0.0 mm 0.13 in3.3 mm
09:45 AM 60.4°F15.8°C 54.3°F12.4°C 80% Calm Calm -- 30.03 in1016.9 mb 0.00 in0.0 mm 0.00 in0.0 mm 0.13 in3.3 mm
09:40 AM 59.7°F15.4°C 53.2°F11.8°C 79% Calm Calm -- 30.03 in1016.9 mb 0.00 in0.0 mm 0.00 in0.0 mm 0.13 in3.3 mm
09:35 AM 59.2°F15.1°C 52.7°F11.5°C 79% Calm Calm -- 30.03 in1016.9 mb 0.00 in0.0 mm 0.00 in0.0 mm 0.13 in3.3 mm
09:30 AM 58.6°F14.8°C 52.2°F11.2°C 79% Calm Calm -- 30.03 in1016.9 mb 0.00 in0.0 mm 0.00 in0.0 mm 0.13 in3.3 mm
09:25 AM 58.1°F14.5°C 51.3°F10.7°C 78% Calm Calm -- 30.03 in1016.9 mb 0.00 in0.0 mm 0.00 in0.0 mm 0.13 in3.3 mm
09:20 AM 58.3°F14.6°C 51.8°F11.0°C 79% Calm Calm -- 30.03 in1016.9 mb 0.00 in0.0 mm 0.00 in0.0 mm 0.13 in3.3 mm
09:15 AM 57.9°F14.4°C 51.5°F10.8°C 79% Calm Calm -- 30.03 in1016.9 mb 0.00 in0.0 mm 0.00 in0.0 mm 0.13 in3.3 mm
09:10 AM 57.2°F14.0°C 50.8°F10.4°C 79% Calm Calm -- 30.03 in1016.9 mb 0.01 in0.3 mm 0.00 in0.0 mm 0.13 in3.3 mm
09:04 AM 56.5°F13.6°C 50.1°F10.1°C 79% Calm Calm -- 30.03 in1016.9 mb 0.01 in0.3 mm 0.00 in0.0 mm 0.13 in3.3 mm
09:00 AM 55.9°F13.3°C 49.9°F9.9°C 80% Calm Calm -- 30.03 in1016.9 mb 0.02 in0.5 mm 0.00 in0.0 mm 0.13 in3.3 mm
08:55 AM 55.0°F12.8°C 49.0°F9.4°C 80% Calm Calm -- 30.06 in1017.9 mb 0.02 in0.5 mm 0.00 in0.0 mm 0.13 in3.3 mm
08:50 AM 54.1°F12.3°C 47.8°F8.8°C 79% Calm Calm -- 30.06 in1017.9 mb 0.02 in0.5 mm 0.00 in0.0 mm 0.13 in3.3 mm
08:45 AM 53.8°F12.1°C 47.8°F8.8°C 80% Calm Calm -- 30.06 in1017.9 mb 0.02 in0.5 mm 0.00 in0.0 mm 0.13 in3.3 mm
08:40 AM 52.7°F11.5°C 46.4°F8.0°C 79% Calm Calm -- 30.03 in1016.9 mb 0.02 in0.5 mm 0.00 in0.0 mm 0.13 in3.3 mm
08:35 AM 51.6°F10.9°C 45.0°F7.2°C 78% Calm Calm -- 30.03 in1016.9 mb 0.02 in0.5 mm 0.00 in0.0 mm 0.13 in3.3 mm
08:30 AM 51.1°F10.6°C 44.1°F6.7°C 77% Calm Calm -- 30.03 in1016.9 mb 0.02 in0.5 mm 0.00 in0.0 mm 0.13 in3.3 mm
08:25 AM 51.3°F10.7°C 44.3°F6.8°C 77% Calm Calm -- 30.03 in1016.9 mb 0.02 in0.5 mm 0.00 in0.0 mm 0.13 in3.3 mm
08:20 AM 51.4°F10.8°C 44.8°F7.1°C 78% Calm Calm -- 30.03 in1016.9 mb 0.02 in0.5 mm 0.00 in0.0 mm 0.13 in3.3 mm
08:15 AM 51.4°F10.8°C 44.8°F7.1°C 78% Calm Calm -- 30.03 in1016.9 mb 0.02 in0.5 mm 0.00 in0.0 mm 0.13 in3.3 mm
08:10 AM 51.4°F10.8°C 44.8°F7.1°C 78% Calm Calm -- 30.03 in1016.9 mb 0.02 in0.5 mm 0.12 in3.0 mm 0.13 in3.3 mm
08:05 AM 51.1°F10.6°C 44.5°F6.9°C 78% Calm Calm -- 30.03 in1016.9 mb 0.01 in0.3 mm 0.00 in0.0 mm 0.12 in3.0 mm
08:00 AM 50.7°F10.4°C 44.1°F6.7°C 78% Calm Calm -- 30.03 in1016.9 mb 0.01 in0.3 mm 0.01 in0.3 mm 0.12 in3.0 mm
07:55 AM 50.5°F10.3°C 43.6°F6.4°C 77% Calm Calm -- 30.03 in1016.9 mb 0.00 in0.0 mm 0.00 in0.0 mm 0.11 in2.8 mm
07:50 AM 50.4°F10.2°C 43.4°F6.3°C 77% Calm Calm -- 30.03 in1016.9 mb 0.00 in0.0 mm 0.00 in0.0 mm 0.11 in2.8 mm
07:45 AM 50.4°F10.2°C 43.4°F6.3°C 77% Calm Calm -- 30.03 in1016.9 mb 0.00 in0.0 mm 0.00 in0.0 mm 0.11 in2.8 mm
07:40 AM 50.4°F10.2°C 43.4°F6.3°C 77% Calm Calm -- 30.03 in1016.9 mb 0.00 in0.0 mm 0.00 in0.0 mm 0.11 in2.8 mm
07:35 AM 50.5°F10.3°C 43.6°F6.4°C 77% Calm Calm -- 30.03 in1016.9 mb 0.00 in0.0 mm 0.00 in0.0 mm 0.11 in2.8 mm
07:30 AM 50.5°F10.3°C 43.6°F6.4°C 77% Calm Calm -- 30.03 in1016.9 mb 0.00 in0.0 mm 0.00 in0.0 mm 0.11 in2.8 mm
07:25 AM 50.4°F10.2°C 43.4°F6.3°C 77% Calm Calm -- 30.03 in1016.9 mb 0.00 in0.0 mm 0.00 in0.0 mm 0.11 in2.8 mm
07:20 AM 50.2°F10.1°C 43.3°F6.3°C 77% Calm Calm -- 30.03 in1016.9 mb 0.00 in0.0 mm 0.00 in0.0 mm 0.11 in2.8 mm
07:15 AM 50.2°F10.1°C 43.3°F6.3°C 77% Calm Calm -- 30.03 in1016.9 mb 0.00 in0.0 mm 0.00 in0.0 mm 0.11 in2.8 mm
07:09 AM 50.0°F10.0°C 42.7°F5.9°C 76% Calm Calm -- 30.03 in1016.9 mb 0.00 in0.0 mm 0.00 in0.0 mm 0.11 in2.8 mm
07:05 AM 50.0°F10.0°C 42.7°F5.9°C 76% Calm Calm -- 30.03 in1016.9 mb 0.00 in0.0 mm 0.00 in0.0 mm 0.11 in2.8 mm
07:00 AM 49.8°F9.9°C 42.6°F5.9°C 76% Calm Calm -- 30.03 in1016.9 mb 0.00 in0.0 mm 0.00 in0.0 mm 0.11 in2.8 mm
06:55 AM 50.0°F10.0°C 42.4°F5.8°C 75% Calm Calm -- 30.03 in1016.9 mb 0.00 in0.0 mm 0.00 in0.0 mm 0.11 in2.8 mm
06:50 AM 50.0°F10.0°C 42.4°F5.8°C 75% Calm Calm -- 30.03 in1016.9 mb 0.00 in0.0 mm 0.00 in0.0 mm 0.11 in2.8 mm
06:45 AM 50.2°F10.1°C 42.9°F6.1°C 76% Calm Calm -- 30.03 in1016.9 mb 0.00 in0.0 mm 0.00 in0.0 mm 0.11 in2.8 mm
06:40 AM 50.4°F10.2°C 43.1°F6.2°C 76% Calm Calm -- 30.03 in1016.9 mb 0.00 in0.0 mm 0.00 in0.0 mm 0.11 in2.8 mm
06:35 AM 50.4°F10.2°C 43.1°F6.2°C 76% Calm Calm -- 30.03 in1016.9 mb 0.00 in0.0 mm 0.00 in0.0 mm 0.11 in2.8 mm
06:30 AM 50.5°F10.3°C 43.3°F6.3°C 76% Calm Calm -- 30.03 in1016.9 mb 0.00 in0.0 mm 0.00 in0.0 mm 0.11 in2.8 mm
06:25 AM 50.5°F10.3°C 43.3°F6.3°C 76% Calm Calm -- 30.03 in1016.9 mb 0.00 in0.0 mm 0.00 in0.0 mm 0.11 in2.8 mm
06:20 AM 50.5°F10.3°C 43.3°F6.3°C 76% Calm Calm -- 30.03 in1016.9 mb 0.00 in0.0 mm 0.00 in0.0 mm 0.11 in2.8 mm
06:15 AM 50.5°F10.3°C 43.3°F6.3°C 76% Calm Calm -- 30.03 in1016.9 mb 0.00 in0.0 mm 0.00 in0.0 mm 0.11 in2.8 mm
06:10 AM 50.7°F10.4°C 43.4°F6.3°C 76% Calm Calm -- 30.03 in1016.9 mb 0.00 in0.0 mm 0.00 in0.0 mm 0.11 in2.8 mm
06:05 AM 50.7°F10.4°C 43.4°F6.3°C 76% Calm Calm -- 30.03 in1016.9 mb 0.00 in0.0 mm 0.00 in0.0 mm 0.11 in2.8 mm
06:00 AM 50.7°F10.4°C 43.4°F6.3°C 76% Calm Calm -- 30.03 in1016.9 mb 0.00 in0.0 mm 0.00 in0.0 mm 0.11 in2.8 mm
05:55 AM 50.5°F10.3°C 42.9°F6.1°C 75% Calm Calm -- 30.03 in1016.9 mb 0.00 in0.0 mm 0.00 in0.0 mm 0.11 in2.8 mm
05:50 AM 50.5°F10.3°C 42.9°F6.1°C 75% Calm Calm -- 30.03 in1016.9 mb 0.00 in0.0 mm 0.00 in0.0 mm 0.11 in2.8 mm
05:45 AM 50.7°F10.4°C 43.1°F6.2°C 75% Calm Calm -- 30.03 in1016.9 mb 0.01 in0.3 mm 0.00 in0.0 mm 0.11 in2.8 mm
05:40 AM 50.7°F10.4°C 43.1°F6.2°C 75% Calm Calm -- 30.03 in1016.9 mb 0.01 in0.3 mm 0.00 in0.0 mm 0.11 in2.8 mm
05:35 AM 50.5°F10.3°C 42.9°F6.1°C 75% Calm Calm -- 30.03 in1016.9 mb 0.01 in0.3 mm 0.00 in0.0 mm 0.11 in2.8 mm
05:30 AM 50.5°F10.3°C 42.9°F6.1°C 75% Calm Calm -- 30.03 in1016.9 mb 0.01 in0.3 mm 0.00 in0.0 mm 0.11 in2.8 mm
05:25 AM 50.5°F10.3°C 42.9°F6.1°C 75% Calm Calm -- 30.03 in1016.9 mb 0.01 in0.3 mm 0.00 in0.0 mm 0.11 in2.8 mm
05:20 AM 50.5°F10.3°C 42.9°F6.1°C 75% Calm Calm -- 30.03 in1016.9 mb 0.02 in0.5 mm 0.00 in0.0 mm 0.11 in2.8 mm
05:15 AM 50.7°F10.4°C 43.1°F6.2°C 75% Calm Calm -- 30.03 in1016.9 mb 0.02 in0.5 mm 0.00 in0.0 mm 0.11 in2.8 mm
05:10 AM 50.7°F10.4°C 43.1°F6.2°C 75% Calm Calm -- 30.03 in1016.9 mb 0.02 in0.5 mm 0.00 in0.0 mm 0.11 in2.8 mm
05:05 AM 50.7°F10.4°C 43.1°F6.2°C 75% Calm Calm -- 30.03 in1016.9 mb 0.03 in0.8 mm 0.00 in0.0 mm 0.11 in2.8 mm
05:00 AM 50.7°F10.4°C 43.1°F6.2°C 75% Calm Calm -- 30.03 in1016.9 mb 0.03 in0.8 mm 0.00 in0.0 mm 0.11 in2.8 mm
04:55 AM 50.7°F10.4°C 43.1°F6.2°C 75% Calm Calm -- 30.03 in1016.9 mb 0.04 in1.0 mm 0.00 in0.0 mm 0.11 in2.8 mm
04:50 AM 50.5°F10.3°C 42.6°F5.9°C 74% Calm Calm -- 30.03 in1016.9 mb 0.04 in1.0 mm 0.12 in3.0 mm 0.11 in2.8 mm
04:45 AM 50.5°F10.3°C 42.9°F6.1°C 75% Calm Calm -- 30.03 in1016.9 mb 0.03 in0.8 mm 0.00 in0.0 mm 0.10 in2.5 mm
04:40 AM 50.7°F10.4°C 42.8°F6.0°C 74% Calm Calm -- 30.03 in1016.9 mb 0.04 in1.0 mm 0.00 in0.0 mm 0.10 in2.5 mm
04:35 AM 50.7°F10.4°C 42.8°F6.0°C 74% Calm Calm -- 30.03 in1016.9 mb 0.04 in1.0 mm 0.00 in0.0 mm 0.10 in2.5 mm
04:30 AM 50.5°F10.3°C 42.6°F5.9°C 74% Calm Calm -- 30.03 in1016.9 mb 0.04 in1.0 mm 0.00 in0.0 mm 0.10 in2.5 mm
04:24 AM 50.5°F10.3°C 42.6°F5.9°C 74% Calm Calm -- 30.03 in1016.9 mb 0.04 in1.0 mm 0.00 in0.0 mm 0.10 in2.5 mm
04:20 AM 50.5°F10.3°C 42.6°F5.9°C 74% Calm Calm -- 30.03 in1016.9 mb 0.06 in1.5 mm 0.00 in0.0 mm 0.10 in2.5 mm
04:15 AM 50.7°F10.4°C 42.8°F6.0°C 74% Calm Calm -- 30.03 in1016.9 mb 0.06 in1.5 mm 0.00 in0.0 mm 0.10 in2.5 mm
04:10 AM 50.7°F10.4°C 42.8°F6.0°C 74% Calm Calm -- 30.03 in1016.9 mb 0.06 in1.5 mm 0.00 in0.0 mm 0.10 in2.5 mm
04:05 AM 50.5°F10.3°C 42.6°F5.9°C 74% Calm Calm -- 30.03 in1016.9 mb 0.06 in1.5 mm 0.24 in6.1 mm 0.10 in2.5 mm
04:00 AM 50.5°F10.3°C 42.6°F5.9°C 74% Calm Calm -- 30.03 in1016.9 mb 0.04 in1.0 mm 0.01 in0.3 mm 0.08 in2.0 mm
03:55 AM 50.5°F10.3°C 42.6°F5.9°C 74% Calm Calm -- 30.06 in1017.9 mb 0.03 in0.8 mm 0.00 in0.0 mm 0.07 in1.8 mm
03:50 AM 50.5°F10.3°C 42.6°F5.9°C 74% Calm Calm -- 30.06 in1017.9 mb 0.03 in0.8 mm 0.00 in0.0 mm 0.07 in1.8 mm
03:45 AM 50.5°F10.3°C 42.6°F5.9°C 74% Calm Calm -- 30.06 in1017.9 mb 0.03 in0.8 mm 0.12 in3.0 mm 0.07 in1.8 mm
03:40 AM 50.7°F10.4°C 42.8°F6.0°C 74% Calm Calm -- 30.06 in1017.9 mb 0.02 in0.5 mm 0.00 in0.0 mm 0.06 in1.5 mm
03:35 AM 50.5°F10.3°C 42.6°F5.9°C 74% Calm Calm -- 30.06 in1017.9 mb 0.02 in0.5 mm 0.00 in0.0 mm 0.06 in1.5 mm
03:30 AM 50.5°F10.3°C 42.6°F5.9°C 74% Calm Calm 2.8 mph4.5 kmh 30.06 in1017.9 mb 0.02 in0.5 mm 0.00 in0.0 mm 0.06 in1.5 mm
03:25 AM 50.5°F10.3°C 42.6°F5.9°C 74% Calm Calm 2.8 mph4.5 kmh 30.06 in1017.9 mb 0.02 in0.5 mm 0.24 in6.1 mm 0.06 in1.5 mm
03:20 AM 50.7°F10.4°C 42.8°F6.0°C 74% 3.4 mph WSW5.5 kmh WSW 6.2 mph10.0 kmh 30.06 in1017.9 mb 0.00 in0.0 mm 0.00 in0.0 mm 0.04 in1.0 mm
03:15 AM 50.7°F10.4°C 42.4°F5.8°C 73% 2.8 mph WSW4.5 kmh WSW 3.9 mph6.3 kmh 30.06 in1017.9 mb 0.00 in0.0 mm 0.00 in0.0 mm 0.04 in1.0 mm
03:10 AM 50.7°F10.4°C 42.4°F5.8°C 73% Calm Calm -- 30.06 in1017.9 mb 0.00 in0.0 mm 0.00 in0.0 mm 0.04 in1.0 mm
03:05 AM 50.7°F10.4°C 42.4°F5.8°C 73% Calm Calm -- 30.06 in1017.9 mb 0.00 in0.0 mm 0.00 in0.0 mm 0.04 in1.0 mm
03:00 AM 50.9°F10.5°C 42.2°F5.7°C 72% Calm Calm 3.9 mph6.3 kmh 30.06 in1017.9 mb 0.00 in0.0 mm 0.00 in0.0 mm 0.04 in1.0 mm
02:55 AM 50.9°F10.5°C 42.2°F5.7°C 72% Calm Calm 2.8 mph4.5 kmh 30.06 in1017.9 mb 0.00 in0.0 mm 0.00 in0.0 mm 0.04 in1.0 mm
02:50 AM 51.1°F10.6°C 42.0°F5.6°C 71% Calm Calm -- 30.06 in1017.9 mb 0.00 in0.0 mm 0.00 in0.0 mm 0.04 in1.0 mm
02:45 AM 51.1°F10.6°C 42.0°F5.6°C 71% Calm Calm -- 30.06 in1017.9 mb 0.00 in0.0 mm 0.00 in0.0 mm 0.04 in1.0 mm
02:40 AM 51.1°F10.6°C 42.0°F5.6°C 71% Calm Calm -- 30.06 in1017.9 mb 0.00 in0.0 mm 0.00 in0.0 mm 0.04 in1.0 mm
02:35 AM 51.1°F10.6°C 42.0°F5.6°C 71% Calm Calm 3.9 mph6.3 kmh 30.06 in1017.9 mb 0.00 in0.0 mm 0.00 in0.0 mm 0.04 in1.0 mm
02:30 AM 50.9°F10.5°C 41.5°F5.3°C 70% Calm Calm -- 30.06 in1017.9 mb 0.00 in0.0 mm 0.00 in0.0 mm 0.04 in1.0 mm
02:25 AM 51.1°F10.6°C 41.7°F5.4°C 70% 2.8 mph S4.5 kmh S 2.8 mph4.5 kmh 30.09 in1019.0 mb 0.00 in0.0 mm 0.00 in0.0 mm 0.04 in1.0 mm
02:20 AM 51.1°F10.6°C 41.3°F5.2°C 69% Calm Calm -- 30.09 in1019.0 mb 0.00 in0.0 mm 0.00 in0.0 mm 0.04 in1.0 mm
02:15 AM 50.9°F10.5°C 41.1°F5.1°C 69% Calm Calm -- 30.09 in1019.0 mb 0.00 in0.0 mm 0.00 in0.0 mm 0.04 in1.0 mm
02:10 AM 50.9°F10.5°C 40.7°F4.8°C 68% 3.4 mph W5.5 kmh W 6.2 mph10.0 kmh 30.09 in1019.0 mb 0.00 in0.0 mm 0.00 in0.0 mm 0.04 in1.0 mm
02:05 AM 50.9°F10.5°C 40.7°F4.8°C 68% Calm Calm -- 30.09 in1019.0 mb 0.01 in0.3 mm 0.00 in0.0 mm 0.04 in1.0 mm
02:00 AM 50.9°F10.5°C 40.7°F4.8°C 68% Calm Calm -- 30.09 in1019.0 mb 0.01 in0.3 mm 0.00 in0.0 mm 0.04 in1.0 mm
01:55 AM 50.9°F10.5°C 40.4°F4.7°C 67% Calm Calm -- 30.09 in1019.0 mb 0.01 in0.3 mm 0.00 in0.0 mm 0.04 in1.0 mm
01:50 AM 50.7°F10.4°C 40.2°F4.6°C 67% Calm Calm -- 30.09 in1019.0 mb 0.03 in0.8 mm 0.00 in0.0 mm 0.04 in1.0 mm
01:45 AM 50.7°F10.4°C 40.2°F4.6°C 67% Calm Calm -- 30.09 in1019.0 mb 0.03 in0.8 mm 0.00 in0.0 mm 0.04 in1.0 mm
01:40 AM 50.7°F10.4°C 39.8°F4.3°C 66% Calm Calm -- 30.09 in1019.0 mb 0.03 in0.8 mm 0.00 in0.0 mm 0.04 in1.0 mm
01:35 AM 50.7°F10.4°C 39.8°F4.3°C 66% Calm Calm 3.9 mph6.3 kmh 30.09 in1019.0 mb 0.03 in0.8 mm 0.00 in0.0 mm 0.04 in1.0 mm
01:30 AM 50.7°F10.4°C 39.4°F4.1°C 65% 5.0 mph WSW8.0 kmh WSW 5.0 mph8.0 kmh 30.09 in1019.0 mb 0.03 in0.8 mm 0.00 in0.0 mm 0.04 in1.0 mm
01:25 AM 50.7°F10.4°C 39.4°F4.1°C 65% Calm Calm -- 30.09 in1019.0 mb 0.03 in0.8 mm 0.00 in0.0 mm 0.04 in1.0 mm
01:20 AM 50.5°F10.3°C 39.2°F4.0°C 65% 3.4 mph WSW5.5 kmh WSW 6.2 mph10.0 kmh 30.09 in1019.0 mb 0.03 in0.8 mm 0.00 in0.0 mm 0.04 in1.0 mm
01:15 AM 50.5°F10.3°C 39.2°F4.0°C 65% Calm Calm -- 30.09 in1019.0 mb 0.03 in0.8 mm 0.00 in0.0 mm 0.04 in1.0 mm
01:10 AM 50.5°F10.3°C 38.8°F3.8°C 64% Calm Calm -- 30.09 in1019.0 mb 0.03 in0.8 mm 0.12 in3.0 mm 0.04 in1.0 mm
01:05 AM 50.5°F10.3°C 38.8°F3.8°C 64% Calm Calm -- 30.09 in1019.0 mb 0.02 in0.5 mm 0.00 in0.0 mm 0.03 in0.8 mm
01:00 AM 50.5°F10.3°C 38.8°F3.8°C 64% Calm Calm -- 30.09 in1019.0 mb 0.02 in0.5 mm 0.00 in0.0 mm 0.03 in0.8 mm
12:55 AM 50.5°F10.3°C 38.8°F3.8°C 64% Calm Calm -- 30.09 in1019.0 mb 0.02 in0.5 mm 0.12 in3.0 mm 0.03 in0.8 mm
12:50 AM 50.5°F10.3°C 38.4°F3.6°C 63% Calm Calm -- 30.09 in1019.0 mb 0.01 in0.3 mm 0.12 in3.0 mm 0.02 in0.5 mm
12:45 AM 50.5°F10.3°C 38.4°F3.6°C 63% Calm Calm -- 30.09 in1019.0 mb 0.00 in0.0 mm 0.00 in0.0 mm 0.01 in0.3 mm
12:40 AM 50.5°F10.3°C 38.4°F3.6°C 63% Calm Calm -- 30.09 in1019.0 mb 0.00 in0.0 mm 0.00 in0.0 mm 0.01 in0.3 mm
12:35 AM 50.5°F10.3°C 38.4°F3.6°C 63% Calm Calm -- 30.09 in1019.0 mb 0.00 in0.0 mm 0.00 in0.0 mm 0.01 in0.3 mm
12:30 AM 50.5°F10.3°C 38.4°F3.6°C 63% Calm Calm -- 30.09 in1019.0 mb 0.00 in0.0 mm 0.00 in0.0 mm 0.01 in0.3 mm
12:25 AM 50.5°F10.3°C 38.0°F3.3°C 62% Calm Calm -- 30.09 in1019.0 mb 0.00 in0.0 mm 0.00 in0.0 mm 0.01 in0.3 mm
12:20 AM 50.4°F10.2°C 37.9°F3.3°C 62% Calm Calm -- 30.09 in1019.0 mb 0.00 in0.0 mm 0.00 in0.0 mm 0.01 in0.3 mm
12:15 AM 50.5°F10.3°C 38.0°F3.3°C 62% Calm Calm 3.4 mph5.5 kmh 30.09 in1019.0 mb 0.01 in0.3 mm 0.00 in0.0 mm 0.01 in0.3 mm
12:09 AM 50.5°F10.3°C 38.0°F3.3°C 62% Calm Calm -- 30.12 in1020.0 mb 0.01 in0.3 mm 0.00 in0.0 mm 0.01 in0.3 mm
12:05 AM 50.5°F10.3°C 38.0°F3.3°C 62% 3.4 mph WSW5.5 kmh WSW 3.9 mph6.3 kmh 30.12 in1020.0 mb 0.01 in0.3 mm 0.00 in0.0 mm 0.01 in0.3 mm
12:00 AM 50.5°F10.3°C 38.0°F3.3°C 62% Calm Calm -- 30.12 in1020.0 mb 0.01 in0.3 mm 0.00 in0.0 mm 0.01 in0.3 mm